sensor_id;sensor_type;location;lat;lon;timestamp;temperature;humidity
17284;DHT22;8760;52.248;20.952;2023-05-07T00:00:45;6.50;99.90
17284;DHT22;8760;52.248;20.952;2023-05-07T00:03:12;6.50;99.90
17284;DHT22;8760;52.248;20.952;2023-05-07T00:05:39;6.50;99.90
17284;DHT22;8760;52.248;20.952;2023-05-07T00:08:08;6.50;99.90
17284;DHT22;8760;52.248;20.952;2023-05-07T00:10:35;6.50;99.90
17284;DHT22;8760;52.248;20.952;2023-05-07T00:13:02;6.50;99.90
17284;DHT22;8760;52.248;20.952;2023-05-07T00:15:29;6.50;99.90
17284;DHT22;8760;52.248;20.952;2023-05-07T00:17:55;6.40;99.90
17284;DHT22;8760;52.248;20.952;2023-05-07T00:20:24;6.50;99.90
17284;DHT22;8760;52.248;20.952;2023-05-07T00:22:51;6.40;99.90
17284;DHT22;8760;52.248;20.952;2023-05-07T00:25:19;6.40;99.90
17284;DHT22;8760;52.248;20.952;2023-05-07T00:27:46;6.40;99.90
17284;DHT22;8760;52.248;20.952;2023-05-07T00:30:13;6.40;99.90
17284;DHT22;8760;52.248;20.952;2023-05-07T00:32:40;6.40;99.90
17284;DHT22;8760;52.248;20.952;2023-05-07T00:35:08;6.40;99.90
17284;DHT22;8760;52.248;20.952;2023-05-07T00:37:35;6.40;99.90
17284;DHT22;8760;52.248;20.952;2023-05-07T00:40:02;6.50;99.90
17284;DHT22;8760;52.248;20.952;2023-05-07T00:42:33;6.40;99.90
17284;DHT22;8760;52.248;20.952;2023-05-07T00:45:00;6.40;99.90
17284;DHT22;8760;52.248;20.952;2023-05-07T00:47:27;6.40;99.90
17284;DHT22;8760;52.248;20.952;2023-05-07T00:49:54;6.40;99.90
17284;DHT22;8760;52.248;20.952;2023-05-07T00:52:22;6.40;99.90
17284;DHT22;8760;52.248;20.952;2023-05-07T00:54:52;6.40;99.90
17284;DHT22;8760;52.248;20.952;2023-05-07T00:57:20;6.40;99.90
17284;DHT22;8760;52.248;20.952;2023-05-07T00:59:49;6.40;99.90
17284;DHT22;8760;52.248;20.952;2023-05-07T01:02:17;6.30;99.90
17284;DHT22;8760;52.248;20.952;2023-05-07T01:04:43;6.40;99.90
17284;DHT22;8760;52.248;20.952;2023-05-07T01:07:11;6.40;99.90
17284;DHT22;8760;52.248;20.952;2023-05-07T01:09:38;6.40;99.90
17284;DHT22;8760;52.248;20.952;2023-05-07T01:12:05;6.30;99.90
17284;DHT22;8760;52.248;20.952;2023-05-07T01:14:33;6.30;99.90
17284;DHT22;8760;52.248;20.952;2023-05-07T01:17:02;6.30;99.90
17284;DHT22;8760;52.248;20.952;2023-05-07T01:19:29;6.40;99.90
17284;DHT22;8760;52.248;20.952;2023-05-07T01:22:02;6.40;99.90
17284;DHT22;8760;52.248;20.952;2023-05-07T01:24:32;6.30;99.90
17284;DHT22;8760;52.248;20.952;2023-05-07T01:26:59;6.20;99.90
17284;DHT22;8760;52.248;20.952;2023-05-07T01:29:27;6.30;99.90
17284;DHT22;8760;52.248;20.952;2023-05-07T01:31:55;6.30;99.90
17284;DHT22;8760;52.248;20.952;2023-05-07T01:34:25;6.30;99.90
17284;DHT22;8760;52.248;20.952;2023-05-07T01:36:53;6.30;99.90
17284;DHT22;8760;52.248;20.952;2023-05-07T01:39:21;6.20;99.90
17284;DHT22;8760;52.248;20.952;2023-05-07T01:41:50;6.20;99.90
17284;DHT22;8760;52.248;20.952;2023-05-07T01:44:18;6.20;99.90
17284;DHT22;8760;52.248;20.952;2023-05-07T01:46:46;6.20;99.90
17284;DHT22;8760;52.248;20.952;2023-05-07T01:49:14;6.20;99.90
17284;DHT22;8760;52.248;20.952;2023-05-07T01:51:41;6.20;99.90
17284;DHT22;8760;52.248;20.952;2023-05-07T01:54:09;6.20;99.90
17284;DHT22;8760;52.248;20.952;2023-05-07T01:56:36;6.20;99.90
17284;DHT22;8760;52.248;20.952;2023-05-07T01:59:04;6.20;99.90
17284;DHT22;8760;52.248;20.952;2023-05-07T02:01:31;6.20;99.90
17284;DHT22;8760;52.248;20.952;2023-05-07T02:03:58;6.20;99.90
17284;DHT22;8760;52.248;20.952;2023-05-07T02:06:25;6.20;99.90
17284;DHT22;8760;52.248;20.952;2023-05-07T02:08:52;6.20;99.90
17284;DHT22;8760;52.248;20.952;2023-05-07T02:11:19;6.20;99.90
17284;DHT22;8760;52.248;20.952;2023-05-07T02:13:45;6.10;99.90
17284;DHT22;8760;52.248;20.952;2023-05-07T02:16:14;6.20;99.90
17284;DHT22;8760;52.248;20.952;2023-05-07T02:18:41;6.20;99.90
17284;DHT22;8760;52.248;20.952;2023-05-07T02:21:07;6.20;99.90
17284;DHT22;8760;52.248;20.952;2023-05-07T02:23:34;6.10;99.90
17284;DHT22;8760;52.248;20.952;2023-05-07T02:26:01;6.10;99.90
17284;DHT22;8760;52.248;20.952;2023-05-07T02:28:28;6.10;99.90
17284;DHT22;8760;52.248;20.952;2023-05-07T02:30:55;6.10;99.90
17284;DHT22;8760;52.248;20.952;2023-05-07T02:33:25;6.10;99.90
17284;DHT22;8760;52.248;20.952;2023-05-07T02:35:52;6.10;99.90
17284;DHT22;8760;52.248;20.952;2023-05-07T02:38:18;6.10;99.90
17284;DHT22;8760;52.248;20.952;2023-05-07T02:40:45;6.10;99.90
17284;DHT22;8760;52.248;20.952;2023-05-07T02:43:12;6.10;99.90
17284;DHT22;8760;52.248;20.952;2023-05-07T02:45:39;6.00;99.90
17284;DHT22;8760;52.248;20.952;2023-05-07T02:48:06;6.00;99.90
17284;DHT22;8760;52.248;20.952;2023-05-07T02:50:34;6.00;99.90
17284;DHT22;8760;52.248;20.952;2023-05-07T02:53:01;6.00;99.90
17284;DHT22;8760;52.248;20.952;2023-05-07T02:55:28;6.10;99.90
17284;DHT22;8760;52.248;20.952;2023-05-07T02:57:55;6.00;99.90
17284;DHT22;8760;52.248;20.952;2023-05-07T03:00:23;6.00;99.90
17284;DHT22;8760;52.248;20.952;2023-05-07T03:02:50;6.00;99.90
17284;DHT22;8760;52.248;20.952;2023-05-07T03:05:17;6.00;99.90
17284;DHT22;8760;52.248;20.952;2023-05-07T03:07:45;6.00;99.90
17284;DHT22;8760;52.248;20.952;2023-05-07T03:10:13;6.00;99.90
17284;DHT22;8760;52.248;20.952;2023-05-07T03:12:39;6.00;99.90
17284;DHT22;8760;52.248;20.952;2023-05-07T03:15:07;6.00;99.90
17284;DHT22;8760;52.248;20.952;2023-05-07T03:17:35;6.00;99.90
17284;DHT22;8760;52.248;20.952;2023-05-07T03:20:02;6.00;99.90
17284;DHT22;8760;52.248;20.952;2023-05-07T03:22:29;6.00;99.90
17284;DHT22;8760;52.248;20.952;2023-05-07T03:24:57;6.10;99.90
17284;DHT22;8760;52.248;20.952;2023-05-07T03:27:25;6.10;99.90
17284;DHT22;8760;52.248;20.952;2023-05-07T03:29:52;6.00;99.90
17284;DHT22;8760;52.248;20.952;2023-05-07T03:32:18;6.10;99.90
17284;DHT22;8760;52.248;20.952;2023-05-07T03:34:45;6.10;99.90
17284;DHT22;8760;52.248;20.952;2023-05-07T03:37:12;6.00;99.90
17284;DHT22;8760;52.248;20.952;2023-05-07T03:39:39;6.10;99.90
17284;DHT22;8760;52.248;20.952;2023-05-07T03:42:07;6.10;99.90
17284;DHT22;8760;52.248;20.952;2023-05-07T03:44:34;6.10;99.90
17284;DHT22;8760;52.248;20.952;2023-05-07T03:47:01;6.10;99.90
17284;DHT22;8760;52.248;20.952;2023-05-07T03:49:28;6.10;99.90
17284;DHT22;8760;52.248;20.952;2023-05-07T03:51:56;6.10;99.90
17284;DHT22;8760;52.248;20.952;2023-05-07T03:54:22;6.10;99.90
17284;DHT22;8760;52.248;20.952;2023-05-07T03:56:49;6.10;99.90
17284;DHT22;8760;52.248;20.952;2023-05-07T03:59:18;6.10;99.90
17284;DHT22;8760;52.248;20.952;2023-05-07T04:01:44;6.10;99.90
17284;DHT22;8760;52.248;20.952;2023-05-07T04:04:11;6.10;99.90
17284;DHT22;8760;52.248;20.952;2023-05-07T04:06:38;6.10;99.90
17284;DHT22;8760;52.248;20.952;2023-05-07T04:09:05;6.10;99.90
17284;DHT22;8760;52.248;20.952;2023-05-07T04:11:34;6.10;99.90
17284;DHT22;8760;52.248;20.952;2023-05-07T04:14:01;6.20;99.90
17284;DHT22;8760;52.248;20.952;2023-05-07T04:16:29;6.20;99.90
17284;DHT22;8760;52.248;20.952;2023-05-07T04:18:56;6.20;99.90
17284;DHT22;8760;52.248;20.952;2023-05-07T04:21:23;6.20;99.90
17284;DHT22;8760;52.248;20.952;2023-05-07T04:23:51;6.30;99.90
17284;DHT22;8760;52.248;20.952;2023-05-07T04:26:18;6.30;99.90
17284;DHT22;8760;52.248;20.952;2023-05-07T04:28:46;6.20;99.90
17284;DHT22;8760;52.248;20.952;2023-05-07T04:31:13;6.20;99.90
17284;DHT22;8760;52.248;20.952;2023-05-07T04:33:42;6.30;99.90
17284;DHT22;8760;52.248;20.952;2023-05-07T04:36:09;6.30;99.90
17284;DHT22;8760;52.248;20.952;2023-05-07T04:38:36;6.30;99.90
17284;DHT22;8760;52.248;20.952;2023-05-07T04:41:05;6.30;99.90
17284;DHT22;8760;52.248;20.952;2023-05-07T04:43:32;6.30;99.90
17284;DHT22;8760;52.248;20.952;2023-05-07T04:45:59;6.30;99.90
17284;DHT22;8760;52.248;20.952;2023-05-07T04:48:26;6.40;99.90
17284;DHT22;8760;52.248;20.952;2023-05-07T04:50:55;6.30;99.90
17284;DHT22;8760;52.248;20.952;2023-05-07T04:53:22;6.30;99.90
17284;DHT22;8760;52.248;20.952;2023-05-07T04:55:49;6.40;99.90
17284;DHT22;8760;52.248;20.952;2023-05-07T04:58:21;6.40;99.90
17284;DHT22;8760;52.248;20.952;2023-05-07T05:00:48;6.50;99.90
17284;DHT22;8760;52.248;20.952;2023-05-07T05:03:14;6.50;99.90
17284;DHT22;8760;52.248;20.952;2023-05-07T05:05:41;6.50;99.90
17284;DHT22;8760;52.248;20.952;2023-05-07T05:08:10;6.50;99.90
17284;DHT22;8760;52.248;20.952;2023-05-07T05:10:36;6.60;99.90
17284;DHT22;8760;52.248;20.952;2023-05-07T05:13:03;6.50;99.90
17284;DHT22;8760;52.248;20.952;2023-05-07T05:15:30;6.60;99.90
17284;DHT22;8760;52.248;20.952;2023-05-07T05:17:57;6.70;99.90
17284;DHT22;8760;52.248;20.952;2023-05-07T05:20:24;6.70;99.90
17284;DHT22;8760;52.248;20.952;2023-05-07T05:22:51;6.80;99.90
17284;DHT22;8760;52.248;20.952;2023-05-07T05:25:19;6.90;99.90
17284;DHT22;8760;52.248;20.952;2023-05-07T05:27:46;7.00;99.90
17284;DHT22;8760;52.248;20.952;2023-05-07T05:30:14;7.00;99.90
17284;DHT22;8760;52.248;20.952;2023-05-07T05:32:41;7.20;99.90
17284;DHT22;8760;52.248;20.952;2023-05-07T05:35:10;7.20;99.90
17284;DHT22;8760;52.248;20.952;2023-05-07T05:37:37;7.30;99.90
17284;DHT22;8760;52.248;20.952;2023-05-07T05:40:04;7.30;99.90
17284;DHT22;8760;52.248;20.952;2023-05-07T05:42:33;7.30;99.90
17284;DHT22;8760;52.248;20.952;2023-05-07T05:44:59;7.30;99.90
17284;DHT22;8760;52.248;20.952;2023-05-07T05:47:26;7.30;99.90
17284;DHT22;8760;52.248;20.952;2023-05-07T05:49:53;7.30;99.90
17284;DHT22;8760;52.248;20.952;2023-05-07T05:52:20;7.30;99.90
17284;DHT22;8760;52.248;20.952;2023-05-07T05:54:49;7.40;99.90
17284;DHT22;8760;52.248;20.952;2023-05-07T05:57:16;7.40;99.90
17284;DHT22;8760;52.248;20.952;2023-05-07T05:59:44;7.40;99.90
17284;DHT22;8760;52.248;20.952;2023-05-07T06:02:12;7.40;99.90
17284;DHT22;8760;52.248;20.952;2023-05-07T06:04:39;7.50;99.90
17284;DHT22;8760;52.248;20.952;2023-05-07T06:07:08;7.40;99.90
17284;DHT22;8760;52.248;20.952;2023-05-07T06:09:34;7.40;99.90
17284;DHT22;8760;52.248;20.952;2023-05-07T06:12:01;7.40;99.90
17284;DHT22;8760;52.248;20.952;2023-05-07T06:14:28;7.40;99.90
17284;DHT22;8760;52.248;20.952;2023-05-07T06:16:56;7.40;99.90
17284;DHT22;8760;52.248;20.952;2023-05-07T06:19:23;7.40;99.90
17284;DHT22;8760;52.248;20.952;2023-05-07T06:21:52;7.50;99.90
17284;DHT22;8760;52.248;20.952;2023-05-07T06:24:18;7.60;99.90
17284;DHT22;8760;52.248;20.952;2023-05-07T06:26:45;7.80;99.90
17284;DHT22;8760;52.248;20.952;2023-05-07T06:29:12;7.90;99.90
17284;DHT22;8760;52.248;20.952;2023-05-07T06:31:39;8.00;99.90
17284;DHT22;8760;52.248;20.952;2023-05-07T06:34:07;8.00;99.90
17284;DHT22;8760;52.248;20.952;2023-05-07T06:36:35;8.00;99.90
17284;DHT22;8760;52.248;20.952;2023-05-07T06:39:02;8.00;99.90
17284;DHT22;8760;52.248;20.952;2023-05-07T06:41:29;8.00;99.90
17284;DHT22;8760;52.248;20.952;2023-05-07T06:43:56;8.00;99.90
17284;DHT22;8760;52.248;20.952;2023-05-07T06:46:23;8.00;99.90
17284;DHT22;8760;52.248;20.952;2023-05-07T06:48:50;8.00;99.90
17284;DHT22;8760;52.248;20.952;2023-05-07T06:51:19;8.10;97.00
17284;DHT22;8760;52.248;20.952;2023-05-07T06:53:45;8.10;24.50
17284;DHT22;8760;52.248;20.952;2023-05-07T06:56:12;8.10;92.30
17284;DHT22;8760;52.248;20.952;2023-05-07T06:58:40;8.10;99.90
17284;DHT22;8760;52.248;20.952;2023-05-07T07:01:06;8.30;20.10
17284;DHT22;8760;52.248;20.952;2023-05-07T07:03:33;8.40;1.00
17284;DHT22;8760;52.248;20.952;2023-05-07T07:06:00;8.50;1.00
17284;DHT22;8760;52.248;20.952;2023-05-07T07:08:29;8.60;1.00
17284;DHT22;8760;52.248;20.952;2023-05-07T07:10:56;8.70;1.00
17284;DHT22;8760;52.248;20.952;2023-05-07T07:13:23;8.80;99.90
17284;DHT22;8760;52.248;20.952;2023-05-07T07:15:50;8.90;1.00
17284;DHT22;8760;52.248;20.952;2023-05-07T07:18:16;9.00;1.00
17284;DHT22;8760;52.248;20.952;2023-05-07T07:20:43;9.10;99.90
17284;DHT22;8760;52.248;20.952;2023-05-07T07:23:11;9.10;99.90
17284;DHT22;8760;52.248;20.952;2023-05-07T07:25:39;9.10;99.90
17284;DHT22;8760;52.248;20.952;2023-05-07T07:28:06;9.30;99.90
17284;DHT22;8760;52.248;20.952;2023-05-07T07:30:33;9.40;99.90
17284;DHT22;8760;52.248;20.952;2023-05-07T07:33:00;9.50;99.90
17284;DHT22;8760;52.248;20.952;2023-05-07T07:35:28;9.50;96.80
17284;DHT22;8760;52.248;20.952;2023-05-07T07:37:55;9.70;64.80
17284;DHT22;8760;52.248;20.952;2023-05-07T07:40:22;9.80;1.00
17284;DHT22;8760;52.248;20.952;2023-05-07T07:42:50;9.90;1.00
17284;DHT22;8760;52.248;20.952;2023-05-07T07:45:17;9.90;1.00
17284;DHT22;8760;52.248;20.952;2023-05-07T07:47:44;9.80;99.90
17284;DHT22;8760;52.248;20.952;2023-05-07T07:50:11;9.90;1.00
17284;DHT22;8760;52.248;20.952;2023-05-07T07:52:38;9.80;1.00
17284;DHT22;8760;52.248;20.952;2023-05-07T07:55:07;9.70;1.00
17284;DHT22;8760;52.248;20.952;2023-05-07T07:57:34;9.70;1.00
17284;DHT22;8760;52.248;20.952;2023-05-07T08:00:03;9.70;1.00
17284;DHT22;8760;52.248;20.952;2023-05-07T08:02:31;9.60;99.90
17284;DHT22;8760;52.248;20.952;2023-05-07T08:04:57;9.60;1.00
17284;DHT22;8760;52.248;20.952;2023-05-07T08:07:24;9.70;99.90
17284;DHT22;8760;52.248;20.952;2023-05-07T08:09:51;9.60;1.00
17284;DHT22;8760;52.248;20.952;2023-05-07T08:12:18;9.50;99.90
17284;DHT22;8760;52.248;20.952;2023-05-07T08:14:45;9.50;1.00
17284;DHT22;8760;52.248;20.952;2023-05-07T08:17:13;9.60;1.00
17284;DHT22;8760;52.248;20.952;2023-05-07T08:19:41;9.80;99.90
17284;DHT22;8760;52.248;20.952;2023-05-07T08:22:09;9.90;1.00
17284;DHT22;8760;52.248;20.952;2023-05-07T08:24:36;10.00;1.00
17284;DHT22;8760;52.248;20.952;2023-05-07T08:27:03;10.00;99.90
17284;DHT22;8760;52.248;20.952;2023-05-07T08:29:30;10.20;99.90
17284;DHT22;8760;52.248;20.952;2023-05-07T08:31:57;10.50;25.40
17284;DHT22;8760;52.248;20.952;2023-05-07T08:34:25;10.90;1.00
17284;DHT22;8760;52.248;20.952;2023-05-07T08:36:52;11.20;1.00
17284;DHT22;8760;52.248;20.952;2023-05-07T08:39:19;11.20;99.90
17284;DHT22;8760;52.248;20.952;2023-05-07T08:41:46;11.40;62.80
17284;DHT22;8760;52.248;20.952;2023-05-07T08:44:14;11.80;1.00
17284;DHT22;8760;52.248;20.952;2023-05-07T08:46:45;12.10;99.90
17284;DHT22;8760;52.248;20.952;2023-05-07T08:49:13;12.20;1.00
17284;DHT22;8760;52.248;20.952;2023-05-07T08:51:42;12.10;1.00
17284;DHT22;8760;52.248;20.952;2023-05-07T08:54:11;11.90;1.00
17284;DHT22;8760;52.248;20.952;2023-05-07T08:56:38;11.70;55.20
17284;DHT22;8760;52.248;20.952;2023-05-07T08:59:06;11.50;99.90
17284;DHT22;8760;52.248;20.952;2023-05-07T09:01:33;11.90;1.00
17284;DHT22;8760;52.248;20.952;2023-05-07T09:04:01;12.20;99.90
17284;DHT22;8760;52.248;20.952;2023-05-07T09:06:28;12.60;1.00
17284;DHT22;8760;52.248;20.952;2023-05-07T09:08:57;12.90;1.00
17284;DHT22;8760;52.248;20.952;2023-05-07T09:11:27;12.80;1.00
17284;DHT22;8760;52.248;20.952;2023-05-07T09:13:54;12.60;99.90
17284;DHT22;8760;52.248;20.952;2023-05-07T09:16:23;12.50;99.90
17284;DHT22;8760;52.248;20.952;2023-05-07T09:18:51;12.30;1.00
17284;DHT22;8760;52.248;20.952;2023-05-07T09:21:20;12.30;99.90
17284;DHT22;8760;52.248;20.952;2023-05-07T09:23:51;12.30;99.90
17284;DHT22;8760;52.248;20.952;2023-05-07T09:26:21;11.90;99.90
17284;DHT22;8760;52.248;20.952;2023-05-07T09:28:48;11.60;99.90
17284;DHT22;8760;52.248;20.952;2023-05-07T09:31:15;11.40;1.00
17284;DHT22;8760;52.248;20.952;2023-05-07T09:33:42;11.40;1.00
17284;DHT22;8760;52.248;20.952;2023-05-07T09:36:10;11.30;99.90
17284;DHT22;8760;52.248;20.952;2023-05-07T09:38:37;11.60;99.90
17284;DHT22;8760;52.248;20.952;2023-05-07T09:41:05;12.40;16.40
17284;DHT22;8760;52.248;20.952;2023-05-07T09:43:34;12.60;1.00
17284;DHT22;8760;52.248;20.952;2023-05-07T09:46:07;12.40;99.90
17284;DHT22;8760;52.248;20.952;2023-05-07T09:48:37;12.10;1.00
17284;DHT22;8760;52.248;20.952;2023-05-07T09:51:11;11.90;1.00
17284;DHT22;8760;52.248;20.952;2023-05-07T09:53:42;12.10;1.00
17284;DHT22;8760;52.248;20.952;2023-05-07T09:56:12;12.40;1.00
17284;DHT22;8760;52.248;20.952;2023-05-07T09:58:41;13.20;1.00
17284;DHT22;8760;52.248;20.952;2023-05-07T10:01:10;13.90;99.90
17284;DHT22;8760;52.248;20.952;2023-05-07T10:03:40;14.00;99.90
17284;DHT22;8760;52.248;20.952;2023-05-07T10:06:08;14.10;1.00
17284;DHT22;8760;52.248;20.952;2023-05-07T10:08:36;14.30;99.90
17284;DHT22;8760;52.248;20.952;2023-05-07T10:11:04;14.00;99.90
17284;DHT22;8760;52.248;20.952;2023-05-07T10:13:31;13.60;99.90
17284;DHT22;8760;52.248;20.952;2023-05-07T10:16:00;13.60;99.90
17284;DHT22;8760;52.248;20.952;2023-05-07T10:18:28;13.40;99.90
17284;DHT22;8760;52.248;20.952;2023-05-07T10:21:04;13.70;99.90
17284;DHT22;8760;52.248;20.952;2023-05-07T10:23:32;14.00;99.90
17284;DHT22;8760;52.248;20.952;2023-05-07T10:26:01;14.50;99.90
17284;DHT22;8760;52.248;20.952;2023-05-07T10:28:29;14.90;99.90
17284;DHT22;8760;52.248;20.952;2023-05-07T10:31:08;15.40;99.90
17284;DHT22;8760;52.248;20.952;2023-05-07T10:33:37;15.50;99.90
17284;DHT22;8760;52.248;20.952;2023-05-07T10:36:06;14.60;99.90
17284;DHT22;8760;52.248;20.952;2023-05-07T10:38:33;14.10;99.90
17284;DHT22;8760;52.248;20.952;2023-05-07T10:41:01;13.90;99.90
17284;DHT22;8760;52.248;20.952;2023-05-07T10:43:39;13.60;99.90
17284;DHT22;8760;52.248;20.952;2023-05-07T10:46:13;13.30;99.90
17284;DHT22;8760;52.248;20.952;2023-05-07T10:49:10;13.00;99.90
17284;DHT22;8760;52.248;20.952;2023-05-07T10:51:41;12.60;99.90
17284;DHT22;8760;52.248;20.952;2023-05-07T10:54:18;12.20;99.90
17284;DHT22;8760;52.248;20.952;2023-05-07T10:56:45;11.90;1.00
17284;DHT22;8760;52.248;20.952;2023-05-07T10:59:35;11.90;1.00
17284;DHT22;8760;52.248;20.952;2023-05-07T11:02:09;11.90;1.00
17284;DHT22;8760;52.248;20.952;2023-05-07T11:04:40;11.90;1.00
17284;DHT22;8760;52.248;20.952;2023-05-07T11:07:24;12.00;1.00
17284;DHT22;8760;52.248;20.952;2023-05-07T11:09:58;12.20;99.90
17284;DHT22;8760;52.248;20.952;2023-05-07T11:12:49;12.40;1.00
17284;DHT22;8760;52.248;20.952;2023-05-07T11:15:37;12.80;99.90
17284;DHT22;8760;52.248;20.952;2023-05-07T11:18:06;12.80;99.90
17284;DHT22;8760;52.248;20.952;2023-05-07T11:20:46;12.70;99.90
17284;DHT22;8760;52.248;20.952;2023-05-07T11:23:54;12.30;99.90
17284;DHT22;8760;52.248;20.952;2023-05-07T11:26:22;12.30;99.90
17284;DHT22;8760;52.248;20.952;2023-05-07T11:28:49;12.30;1.00
17284;DHT22;8760;52.248;20.952;2023-05-07T11:31:21;12.60;1.00
17284;DHT22;8760;52.248;20.952;2023-05-07T11:33:51;13.20;1.00
17284;DHT22;8760;52.248;20.952;2023-05-07T11:36:18;13.30;99.90
17284;DHT22;8760;52.248;20.952;2023-05-07T11:38:46;13.40;99.90
17284;DHT22;8760;52.248;20.952;2023-05-07T11:41:13;14.00;99.90
17284;DHT22;8760;52.248;20.952;2023-05-07T11:43:57;13.90;99.90
17284;DHT22;8760;52.248;20.952;2023-05-07T11:46:24;13.80;99.90
17284;DHT22;8760;52.248;20.952;2023-05-07T11:48:53;13.60;99.90
17284;DHT22;8760;52.248;20.952;2023-05-07T11:51:21;13.20;99.90
17284;DHT22;8760;52.248;20.952;2023-05-07T11:53:49;13.10;99.90
17284;DHT22;8760;52.248;20.952;2023-05-07T11:56:18;12.90;99.90
17284;DHT22;8760;52.248;20.952;2023-05-07T11:58:46;12.90;99.90
17284;DHT22;8760;52.248;20.952;2023-05-07T12:01:14;13.10;99.90
17284;DHT22;8760;52.248;20.952;2023-05-07T12:03:43;13.20;99.90
17284;DHT22;8760;52.248;20.952;2023-05-07T12:06:14;13.50;99.90
17284;DHT22;8760;52.248;20.952;2023-05-07T12:08:42;13.50;99.90
17284;DHT22;8760;52.248;20.952;2023-05-07T12:11:10;14.10;99.90
17284;DHT22;8760;52.248;20.952;2023-05-07T12:13:39;14.10;99.90
17284;DHT22;8760;52.248;20.952;2023-05-07T12:16:07;14.00;99.90
17284;DHT22;8760;52.248;20.952;2023-05-07T12:18:35;13.90;99.90
17284;DHT22;8760;52.248;20.952;2023-05-07T12:21:04;13.80;99.90
17284;DHT22;8760;52.248;20.952;2023-05-07T12:23:33;13.80;99.90
17284;DHT22;8760;52.248;20.952;2023-05-07T12:26:00;13.70;99.90
17284;DHT22;8760;52.248;20.952;2023-05-07T12:28:28;13.70;99.90
17284;DHT22;8760;52.248;20.952;2023-05-07T12:30:56;13.80;99.90
17284;DHT22;8760;52.248;20.952;2023-05-07T12:33:25;13.90;99.90
17284;DHT22;8760;52.248;20.952;2023-05-07T12:35:54;13.90;99.90
17284;DHT22;8760;52.248;20.952;2023-05-07T12:38:22;13.70;99.90
17284;DHT22;8760;52.248;20.952;2023-05-07T12:40:53;13.30;99.90
17284;DHT22;8760;52.248;20.952;2023-05-07T12:43:21;13.10;99.90
17284;DHT22;8760;52.248;20.952;2023-05-07T12:45:49;12.90;99.90
17284;DHT22;8760;52.248;20.952;2023-05-07T12:48:17;13.00;99.90
17284;DHT22;8760;52.248;20.952;2023-05-07T12:50:44;13.10;99.90
17284;DHT22;8760;52.248;20.952;2023-05-07T12:53:12;13.20;99.90
17284;DHT22;8760;52.248;20.952;2023-05-07T12:55:41;13.50;99.90
17284;DHT22;8760;52.248;20.952;2023-05-07T12:58:15;13.80;99.90
17284;DHT22;8760;52.248;20.952;2023-05-07T13:00:42;13.90;99.90
17284;DHT22;8760;52.248;20.952;2023-05-07T13:03:10;13.70;99.90
17284;DHT22;8760;52.248;20.952;2023-05-07T13:05:37;13.30;99.90
17284;DHT22;8760;52.248;20.952;2023-05-07T13:08:04;13.20;99.90
17284;DHT22;8760;52.248;20.952;2023-05-07T13:10:31;13.50;99.90
17284;DHT22;8760;52.248;20.952;2023-05-07T13:12:59;14.00;99.90
17284;DHT22;8760;52.248;20.952;2023-05-07T13:15:27;14.40;99.90
17284;DHT22;8760;52.248;20.952;2023-05-07T13:17:54;14.40;99.90
17284;DHT22;8760;52.248;20.952;2023-05-07T13:20:21;14.40;99.90
17284;DHT22;8760;52.248;20.952;2023-05-07T13:22:48;14.20;99.90
17284;DHT22;8760;52.248;20.952;2023-05-07T13:25:15;13.90;99.90
17284;DHT22;8760;52.248;20.952;2023-05-07T13:27:42;13.60;99.90
17284;DHT22;8760;52.248;20.952;2023-05-07T13:30:10;13.50;99.90
17284;DHT22;8760;52.248;20.952;2023-05-07T13:32:38;13.30;99.90
17284;DHT22;8760;52.248;20.952;2023-05-07T13:35:06;13.10;99.90
17284;DHT22;8760;52.248;20.952;2023-05-07T13:37:33;13.20;99.90
17284;DHT22;8760;52.248;20.952;2023-05-07T13:40:00;13.30;99.90
17284;DHT22;8760;52.248;20.952;2023-05-07T13:42:26;13.40;99.90
17284;DHT22;8760;52.248;20.952;2023-05-07T13:44:53;13.80;99.90
17284;DHT22;8760;52.248;20.952;2023-05-07T13:47:20;14.00;99.90
17284;DHT22;8760;52.248;20.952;2023-05-07T13:49:49;14.20;99.90
17284;DHT22;8760;52.248;20.952;2023-05-07T13:52:16;14.00;99.90
17284;DHT22;8760;52.248;20.952;2023-05-07T13:54:43;14.10;99.90
17284;DHT22;8760;52.248;20.952;2023-05-07T13:57:10;14.20;99.90
17284;DHT22;8760;52.248;20.952;2023-05-07T13:59:36;14.50;99.90
17284;DHT22;8760;52.248;20.952;2023-05-07T14:02:03;14.60;99.90
17284;DHT22;8760;52.248;20.952;2023-05-07T14:04:30;14.70;99.90
17284;DHT22;8760;52.248;20.952;2023-05-07T14:06:59;14.90;99.90
17284;DHT22;8760;52.248;20.952;2023-05-07T14:09:26;15.00;99.90
17284;DHT22;8760;52.248;20.952;2023-05-07T14:11:52;14.90;99.90
17284;DHT22;8760;52.248;20.952;2023-05-07T14:14:19;14.50;99.90
17284;DHT22;8760;52.248;20.952;2023-05-07T14:16:46;14.40;99.90
17284;DHT22;8760;52.248;20.952;2023-05-07T14:19:13;14.50;99.90
17284;DHT22;8760;52.248;20.952;2023-05-07T14:21:40;14.70;99.90
17284;DHT22;8760;52.248;20.952;2023-05-07T14:24:09;14.70;99.90
17284;DHT22;8760;52.248;20.952;2023-05-07T14:26:36;14.50;99.90
17284;DHT22;8760;52.248;20.952;2023-05-07T14:29:03;14.60;99.90
17284;DHT22;8760;52.248;20.952;2023-05-07T14:31:30;14.20;99.90
17284;DHT22;8760;52.248;20.952;2023-05-07T14:33:57;13.90;99.90
17284;DHT22;8760;52.248;20.952;2023-05-07T14:36:24;13.70;99.90
17284;DHT22;8760;52.248;20.952;2023-05-07T14:38:56;13.60;99.90
17284;DHT22;8760;52.248;20.952;2023-05-07T14:41:26;14.00;99.90
17284;DHT22;8760;52.248;20.952;2023-05-07T14:43:53;14.40;99.90
17284;DHT22;8760;52.248;20.952;2023-05-07T14:46:19;14.50;99.90
17284;DHT22;8760;52.248;20.952;2023-05-07T14:48:46;14.70;99.90
17284;DHT22;8760;52.248;20.952;2023-05-07T14:51:14;14.70;99.90
17284;DHT22;8760;52.248;20.952;2023-05-07T14:53:40;14.60;99.90
17284;DHT22;8760;52.248;20.952;2023-05-07T14:56:08;14.50;99.90
17284;DHT22;8760;52.248;20.952;2023-05-07T14:58:36;14.40;99.90
17284;DHT22;8760;52.248;20.952;2023-05-07T15:01:03;14.30;99.90
17284;DHT22;8760;52.248;20.952;2023-05-07T15:03:30;13.90;99.90
17284;DHT22;8760;52.248;20.952;2023-05-07T15:06:00;13.80;99.90
17284;DHT22;8760;52.248;20.952;2023-05-07T15:08:27;14.00;99.90
17284;DHT22;8760;52.248;20.952;2023-05-07T15:10:54;14.20;99.90
17284;DHT22;8760;52.248;20.952;2023-05-07T15:13:21;14.30;99.90
17284;DHT22;8760;52.248;20.952;2023-05-07T15:15:49;14.40;99.90
17284;DHT22;8760;52.248;20.952;2023-05-07T15:18:16;14.60;99.90
17284;DHT22;8760;52.248;20.952;2023-05-07T15:20:43;14.50;99.90
17284;DHT22;8760;52.248;20.952;2023-05-07T15:23:10;14.30;99.90
17284;DHT22;8760;52.248;20.952;2023-05-07T15:25:39;14.00;93.20
17284;DHT22;8760;52.248;20.952;2023-05-07T15:28:06;13.90;95.50
17284;DHT22;8760;52.248;20.952;2023-05-07T15:30:33;13.70;99.00
17284;DHT22;8760;52.248;20.952;2023-05-07T15:33:02;13.80;99.90
17284;DHT22;8760;52.248;20.952;2023-05-07T15:35:29;13.90;99.90
17284;DHT22;8760;52.248;20.952;2023-05-07T15:37:56;13.80;99.90
17284;DHT22;8760;52.248;20.952;2023-05-07T15:40:23;13.90;96.80
17284;DHT22;8760;52.248;20.952;2023-05-07T15:42:50;13.70;97.80
17284;DHT22;8760;52.248;20.952;2023-05-07T15:45:20;13.40;89.70